sensor_id;sensor_type;location;lat;lon;timestamp;P1;durP1;ratioP1;P2;durP2;ratioP2
20653;SDS011;21083;50.898;4.902;2023-01-08T00:01:14;9.52;;;3.00;;
20653;SDS011;21083;50.898;4.902;2023-01-08T00:03:42;9.52;;;2.53;;
20653;SDS011;21083;50.898;4.902;2023-01-08T00:06:10;8.60;;;2.65;;
20653;SDS011;21083;50.898;4.902;2023-01-08T00:08:39;8.13;;;2.78;;
20653;SDS011;21083;50.898;4.902;2023-01-08T00:11:06;10.63;;;2.75;;
20653;SDS011;21083;50.898;4.902;2023-01-08T00:13:33;10.95;;;3.30;;
20653;SDS011;21083;50.898;4.902;2023-01-08T00:16:05;9.05;;;2.55;;
20653;SDS011;21083;50.898;4.902;2023-01-08T00:18:34;11.13;;;2.53;;
20653;SDS011;21083;50.898;4.902;2023-01-08T00:21:01;10.68;;;2.90;;
20653;SDS011;21083;50.898;4.902;2023-01-08T00:23:28;6.85;;;2.78;;
20653;SDS011;21083;50.898;4.902;2023-01-08T00:25:55;11.95;;;3.05;;
20653;SDS011;21083;50.898;4.902;2023-01-08T00:28:22;8.77;;;2.70;;
20653;SDS011;21083;50.898;4.902;2023-01-08T00:30:49;8.70;;;2.60;;
20653;SDS011;21083;50.898;4.902;2023-01-08T00:33:18;7.82;;;2.58;;
20653;SDS011;21083;50.898;4.902;2023-01-08T00:35:45;8.68;;;2.70;;
20653;SDS011;21083;50.898;4.902;2023-01-08T00:38:12;6.15;;;2.22;;
20653;SDS011;21083;50.898;4.902;2023-01-08T00:40:38;13.23;;;2.92;;
20653;SDS011;21083;50.898;4.902;2023-01-08T00:43:05;10.50;;;2.55;;
20653;SDS011;21083;50.898;4.902;2023-01-08T00:45:33;12.23;;;3.00;;
20653;SDS011;21083;50.898;4.902;2023-01-08T00:48:00;9.30;;;2.83;;
20653;SDS011;21083;50.898;4.902;2023-01-08T00:50:28;6.32;;;2.50;;
20653;SDS011;21083;50.898;4.902;2023-01-08T00:52:55;7.95;;;2.85;;
20653;SDS011;21083;50.898;4.902;2023-01-08T00:55:22;8.18;;;2.53;;
20653;SDS011;21083;50.898;4.902;2023-01-08T00:57:49;8.90;;;2.75;;
20653;SDS011;21083;50.898;4.902;2023-01-08T01:00:16;6.97;;;2.65;;
20653;SDS011;21083;50.898;4.902;2023-01-08T01:02:43;8.77;;;2.85;;
20653;SDS011;21083;50.898;4.902;2023-01-08T01:05:10;6.25;;;2.25;;
20653;SDS011;21083;50.898;4.902;2023-01-08T01:07:41;12.50;;;3.08;;
20653;SDS011;21083;50.898;4.902;2023-01-08T01:10:08;10.25;;;2.83;;
20653;SDS011;21083;50.898;4.902;2023-01-08T01:12:36;10.98;;;2.50;;
20653;SDS011;21083;50.898;4.902;2023-01-08T01:15:04;11.43;;;2.80;;
20653;SDS011;21083;50.898;4.902;2023-01-08T01:17:32;10.18;;;2.88;;
20653;SDS011;21083;50.898;4.902;2023-01-08T01:19:59;6.32;;;2.58;;
20653;SDS011;21083;50.898;4.902;2023-01-08T01:22:26;9.98;;;2.95;;
20653;SDS011;21083;50.898;4.902;2023-01-08T01:24:55;12.88;;;3.38;;
20653;SDS011;21083;50.898;4.902;2023-01-08T01:27:23;5.60;;;2.30;;
20653;SDS011;21083;50.898;4.902;2023-01-08T01:29:50;9.63;;;2.70;;
20653;SDS011;21083;50.898;4.902;2023-01-08T01:32:17;7.75;;;2.60;;
20653;SDS011;21083;50.898;4.902;2023-01-08T01:34:44;8.70;;;3.00;;
20653;SDS011;21083;50.898;4.902;2023-01-08T01:37:12;11.13;;;3.30;;
20653;SDS011;21083;50.898;4.902;2023-01-08T01:39:39;8.65;;;2.58;;
20653;SDS011;21083;50.898;4.902;2023-01-08T01:42:10;8.98;;;2.60;;
20653;SDS011;21083;50.898;4.902;2023-01-08T01:44:59;9.15;;;2.83;;
20653;SDS011;21083;50.898;4.902;2023-01-08T01:47:27;12.32;;;3.75;;
20653;SDS011;21083;50.898;4.902;2023-01-08T01:49:59;10.02;;;2.72;;
20653;SDS011;21083;50.898;4.902;2023-01-08T01:52:29;6.10;;;2.40;;
20653;SDS011;21083;50.898;4.902;2023-01-08T01:54:58;9.75;;;2.60;;
20653;SDS011;21083;50.898;4.902;2023-01-08T01:57:28;8.15;;;2.67;;
20653;SDS011;21083;50.898;4.902;2023-01-08T01:59:56;9.75;;;2.35;;
20653;SDS011;21083;50.898;4.902;2023-01-08T02:02:25;6.32;;;1.35;;
20653;SDS011;21083;50.898;4.902;2023-01-08T02:04:52;2.58;;;0.95;;
20653;SDS011;21083;50.898;4.902;2023-01-08T02:07:21;3.03;;;0.70;;
20653;SDS011;21083;50.898;4.902;2023-01-08T02:09:55;4.43;;;0.90;;
20653;SDS011;21083;50.898;4.902;2023-01-08T02:12:31;3.50;;;0.93;;
20653;SDS011;21083;50.898;4.902;2023-01-08T02:15:03;4.32;;;1.45;;
20653;SDS011;21083;50.898;4.902;2023-01-08T02:17:38;5.18;;;1.23;;
20653;SDS011;21083;50.898;4.902;2023-01-08T02:20:11;2.38;;;0.70;;
20653;SDS011;21083;50.898;4.902;2023-01-08T02:22:53;4.05;;;0.93;;
20653;SDS011;21083;50.898;4.902;2023-01-08T02:25:40;1.42;;;0.57;;
20653;SDS011;21083;50.898;4.902;2023-01-08T02:28:22;4.95;;;1.08;;
20653;SDS011;21083;50.898;4.902;2023-01-08T02:30:51;5.18;;;0.85;;
20653;SDS011;21083;50.898;4.902;2023-01-08T02:33:19;5.85;;;1.00;;
20653;SDS011;21083;50.898;4.902;2023-01-08T02:35:50;3.60;;;0.95;;
20653;SDS011;21083;50.898;4.902;2023-01-08T02:38:20;6.15;;;1.10;;
20653;SDS011;21083;50.898;4.902;2023-01-08T02:40:51;6.25;;;1.33;;
20653;SDS011;21083;50.898;4.902;2023-01-08T02:43:23;5.03;;;1.40;;
20653;SDS011;21083;50.898;4.902;2023-01-08T02:45:55;5.55;;;1.67;;
20653;SDS011;21083;50.898;4.902;2023-01-08T02:48:29;5.43;;;1.20;;
20653;SDS011;21083;50.898;4.902;2023-01-08T02:51:02;6.07;;;1.33;;
20653;SDS011;21083;50.898;4.902;2023-01-08T02:53:32;8.00;;;1.70;;
20653;SDS011;21083;50.898;4.902;2023-01-08T02:56:05;7.13;;;2.03;;
20653;SDS011;21083;50.898;4.902;2023-01-08T02:58:36;5.45;;;2.13;;
20653;SDS011;21083;50.898;4.902;2023-01-08T03:01:05;6.20;;;2.33;;
20653;SDS011;21083;50.898;4.902;2023-01-08T03:03:34;9.27;;;2.40;;
20653;SDS011;21083;50.898;4.902;2023-01-08T03:06:06;6.90;;;2.40;;
20653;SDS011;21083;50.898;4.902;2023-01-08T03:08:36;8.52;;;3.00;;
20653;SDS011;21083;50.898;4.902;2023-01-08T03:11:06;9.77;;;2.38;;
20653;SDS011;21083;50.898;4.902;2023-01-08T03:13:37;6.30;;;2.20;;
20653;SDS011;21083;50.898;4.902;2023-01-08T03:16:09;9.23;;;2.35;;
20653;SDS011;21083;50.898;4.902;2023-01-08T03:18:43;6.70;;;2.38;;
20653;SDS011;21083;50.898;4.902;2023-01-08T03:21:14;10.32;;;2.13;;
20653;SDS011;21083;50.898;4.902;2023-01-08T03:23:42;4.45;;;1.42;;
20653;SDS011;21083;50.898;4.902;2023-01-08T03:26:12;6.25;;;1.27;;
20653;SDS011;21083;50.898;4.902;2023-01-08T03:28:46;8.38;;;1.40;;
20653;SDS011;21083;50.898;4.902;2023-01-08T03:31:17;9.95;;;1.27;;
20653;SDS011;21083;50.898;4.902;2023-01-08T03:33:45;4.38;;;1.40;;
20653;SDS011;21083;50.898;4.902;2023-01-08T03:36:13;3.83;;;1.20;;
20653;SDS011;21083;50.898;4.902;2023-01-08T03:38:43;5.40;;;1.40;;
20653;SDS011;21083;50.898;4.902;2023-01-08T03:41:14;10.63;;;1.23;;
20653;SDS011;21083;50.898;4.902;2023-01-08T03:43:46;6.10;;;1.02;;
20653;SDS011;21083;50.898;4.902;2023-01-08T03:46:13;3.95;;;1.20;;
20653;SDS011;21083;50.898;4.902;2023-01-08T03:48:44;2.03;;;0.68;;
20653;SDS011;21083;50.898;4.902;2023-01-08T03:51:12;1.50;;;0.55;;
20653;SDS011;21083;50.898;4.902;2023-01-08T03:53:39;2.22;;;0.70;;
20653;SDS011;21083;50.898;4.902;2023-01-08T03:56:06;3.92;;;0.63;;
20653;SDS011;21083;50.898;4.902;2023-01-08T03:58:33;2.92;;;0.75;;
20653;SDS011;21083;50.898;4.902;2023-01-08T04:01:01;5.28;;;1.08;;
20653;SDS011;21083;50.898;4.902;2023-01-08T04:03:28;5.53;;;0.80;;
20653;SDS011;21083;50.898;4.902;2023-01-08T04:05:57;8.52;;;0.80;;
20653;SDS011;21083;50.898;4.902;2023-01-08T04:08:24;3.28;;;0.75;;
20653;SDS011;21083;50.898;4.902;2023-01-08T04:10:51;4.95;;;0.70;;
20653;SDS011;21083;50.898;4.902;2023-01-08T04:13:18;4.75;;;0.73;;
20653;SDS011;21083;50.898;4.902;2023-01-08T04:15:46;3.90;;;0.80;;
20653;SDS011;21083;50.898;4.902;2023-01-08T04:18:14;4.38;;;0.80;;
20653;SDS011;21083;50.898;4.902;2023-01-08T04:20:43;6.07;;;0.80;;
20653;SDS011;21083;50.898;4.902;2023-01-08T04:23:11;3.80;;;0.80;;
20653;SDS011;21083;50.898;4.902;2023-01-08T04:25:38;2.15;;;0.60;;
20653;SDS011;21083;50.898;4.902;2023-01-08T04:28:05;4.38;;;0.60;;
20653;SDS011;21083;50.898;4.902;2023-01-08T04:30:32;6.75;;;0.80;;
20653;SDS011;21083;50.898;4.902;2023-01-08T04:32:58;2.15;;;0.70;;
20653;SDS011;21083;50.898;4.902;2023-01-08T04:35:27;5.22;;;0.82;;
20653;SDS011;21083;50.898;4.902;2023-01-08T04:37:54;9.10;;;0.90;;
20653;SDS011;21083;50.898;4.902;2023-01-08T04:40:21;9.90;;;1.17;;
20653;SDS011;21083;50.898;4.902;2023-01-08T04:42:48;7.68;;;1.27;;
20653;SDS011;21083;50.898;4.902;2023-01-08T04:45:15;6.60;;;1.02;;
20653;SDS011;21083;50.898;4.902;2023-01-08T04:47:42;9.32;;;1.10;;
20653;SDS011;21083;50.898;4.902;2023-01-08T04:50:09;10.43;;;1.63;;
20653;SDS011;21083;50.898;4.902;2023-01-08T04:52:38;7.13;;;1.05;;
20653;SDS011;21083;50.898;4.902;2023-01-08T04:55:05;11.48;;;1.83;;
20653;SDS011;21083;50.898;4.902;2023-01-08T04:57:32;7.55;;;1.08;;
20653;SDS011;21083;50.898;4.902;2023-01-08T04:59:59;10.32;;;1.10;;
20653;SDS011;21083;50.898;4.902;2023-01-08T05:02:26;8.73;;;1.17;;
20653;SDS011;21083;50.898;4.902;2023-01-08T05:04:52;10.35;;;1.10;;
20653;SDS011;21083;50.898;4.902;2023-01-08T05:07:19;9.90;;;1.73;;
20653;SDS011;21083;50.898;4.902;2023-01-08T05:09:47;10.50;;;1.35;;
20653;SDS011;21083;50.898;4.902;2023-01-08T05:12:14;9.88;;;0.98;;
20653;SDS011;21083;50.898;4.902;2023-01-08T05:14:41;10.63;;;2.22;;
20653;SDS011;21083;50.898;4.902;2023-01-08T05:17:08;9.10;;;1.00;;
20653;SDS011;21083;50.898;4.902;2023-01-08T05:19:35;6.32;;;1.00;;
20653;SDS011;21083;50.898;4.902;2023-01-08T05:22:02;4.22;;;0.85;;
20653;SDS011;21083;50.898;4.902;2023-01-08T05:24:29;8.27;;;1.65;;
20653;SDS011;21083;50.898;4.902;2023-01-08T05:26:57;5.75;;;1.20;;
20653;SDS011;21083;50.898;4.902;2023-01-08T05:29:24;5.82;;;1.20;;
20653;SDS011;21083;50.898;4.902;2023-01-08T05:31:50;11.05;;;1.55;;
20653;SDS011;21083;50.898;4.902;2023-01-08T05:34:17;7.53;;;0.80;;
20653;SDS011;21083;50.898;4.902;2023-01-08T05:36:44;4.55;;;0.85;;
20653;SDS011;21083;50.898;4.902;2023-01-08T05:39:11;10.98;;;0.95;;
20653;SDS011;21083;50.898;4.902;2023-01-08T05:41:38;4.63;;;1.00;;
20653;SDS011;21083;50.898;4.902;2023-01-08T05:44:06;6.57;;;1.00;;
20653;SDS011;21083;50.898;4.902;2023-01-08T05:46:33;7.90;;;1.25;;
20653;SDS011;21083;50.898;4.902;2023-01-08T05:49:00;6.40;;;1.00;;
20653;SDS011;21083;50.898;4.902;2023-01-08T05:51:26;10.18;;;1.58;;
20653;SDS011;21083;50.898;4.902;2023-01-08T05:53:53;8.20;;;0.90;;
20653;SDS011;21083;50.898;4.902;2023-01-08T05:56:21;10.25;;;0.93;;
20653;SDS011;21083;50.898;4.902;2023-01-08T05:58:48;7.28;;;0.95;;
20653;SDS011;21083;50.898;4.902;2023-01-08T06:01:20;11.68;;;1.55;;
20653;SDS011;21083;50.898;4.902;2023-01-08T06:03:47;9.75;;;1.05;;
20653;SDS011;21083;50.898;4.902;2023-01-08T06:06:14;9.98;;;1.50;;
20653;SDS011;21083;50.898;4.902;2023-01-08T06:08:41;10.82;;;1.20;;
20653;SDS011;21083;50.898;4.902;2023-01-08T06:11:09;7.38;;;1.00;;
20653;SDS011;21083;50.898;4.902;2023-01-08T06:13:40;10.02;;;1.20;;
20653;SDS011;21083;50.898;4.902;2023-01-08T06:16:07;6.00;;;1.00;;
20653;SDS011;21083;50.898;4.902;2023-01-08T06:18:36;6.47;;;0.82;;
20653;SDS011;21083;50.898;4.902;2023-01-08T06:21:04;10.07;;;1.33;;
20653;SDS011;21083;50.898;4.902;2023-01-08T06:23:31;8.43;;;1.40;;
20653;SDS011;21083;50.898;4.902;2023-01-08T06:25:58;6.03;;;0.98;;
20653;SDS011;21083;50.898;4.902;2023-01-08T06:28:28;16.02;;;1.10;;
20653;SDS011;21083;50.898;4.902;2023-01-08T06:30:56;10.20;;;1.30;;
20653;SDS011;21083;50.898;4.902;2023-01-08T06:33:24;9.52;;;1.50;;
20653;SDS011;21083;50.898;4.902;2023-01-08T06:35:53;6.22;;;1.23;;
20653;SDS011;21083;50.898;4.902;2023-01-08T06:38:20;12.38;;;1.60;;
20653;SDS011;21083;50.898;4.902;2023-01-08T06:40:47;6.25;;;1.08;;
20653;SDS011;21083;50.898;4.902;2023-01-08T06:43:14;7.30;;;1.30;;
20653;SDS011;21083;50.898;4.902;2023-01-08T06:45:41;9.35;;;1.20;;
20653;SDS011;21083;50.898;4.902;2023-01-08T06:48:08;7.57;;;1.02;;
20653;SDS011;21083;50.898;4.902;2023-01-08T06:50:35;12.30;;;1.35;;
20653;SDS011;21083;50.898;4.902;2023-01-08T06:53:03;12.70;;;1.40;;
20653;SDS011;21083;50.898;4.902;2023-01-08T06:55:30;6.65;;;1.50;;
20653;SDS011;21083;50.898;4.902;2023-01-08T06:57:57;8.75;;;1.55;;
20653;SDS011;21083;50.898;4.902;2023-01-08T07:00:25;14.45;;;1.33;;
20653;SDS011;21083;50.898;4.902;2023-01-08T07:02:52;8.35;;;1.17;;
20653;SDS011;21083;50.898;4.902;2023-01-08T07:05:20;14.75;;;1.60;;
20653;SDS011;21083;50.898;4.902;2023-01-08T07:07:47;9.55;;;1.40;;
20653;SDS011;21083;50.898;4.902;2023-01-08T07:10:15;12.25;;;1.17;;
20653;SDS011;21083;50.898;4.902;2023-01-08T07:12:42;10.05;;;1.42;;
20653;SDS011;21083;50.898;4.902;2023-01-08T07:15:09;11.45;;;1.13;;
20653;SDS011;21083;50.898;4.902;2023-01-08T07:17:36;8.30;;;1.15;;
20653;SDS011;21083;50.898;4.902;2023-01-08T07:20:03;10.93;;;1.40;;
20653;SDS011;21083;50.898;4.902;2023-01-08T07:22:31;13.85;;;2.22;;
20653;SDS011;21083;50.898;4.902;2023-01-08T07:24:58;11.35;;;1.40;;
20653;SDS011;21083;50.898;4.902;2023-01-08T07:27:26;11.23;;;1.60;;
20653;SDS011;21083;50.898;4.902;2023-01-08T07:29:53;24.92;;;2.95;;
20653;SDS011;21083;50.898;4.902;2023-01-08T07:32:20;13.20;;;1.42;;
20653;SDS011;21083;50.898;4.902;2023-01-08T07:34:47;11.55;;;1.60;;
20653;SDS011;21083;50.898;4.902;2023-01-08T07:37:14;9.90;;;1.38;;
20653;SDS011;21083;50.898;4.902;2023-01-08T07:39:41;8.35;;;1.35;;
20653;SDS011;21083;50.898;4.902;2023-01-08T07:42:08;11.10;;;1.42;;
20653;SDS011;21083;50.898;4.902;2023-01-08T07:44:36;10.18;;;1.83;;
20653;SDS011;21083;50.898;4.902;2023-01-08T07:47:03;12.20;;;1.70;;
20653;SDS011;21083;50.898;4.902;2023-01-08T07:49:30;16.05;;;2.70;;
20653;SDS011;21083;50.898;4.902;2023-01-08T07:51:57;12.82;;;2.13;;
20653;SDS011;21083;50.898;4.902;2023-01-08T07:54:24;10.45;;;1.35;;
20653;SDS011;21083;50.898;4.902;2023-01-08T07:56:52;11.57;;;1.75;;
20653;SDS011;21083;50.898;4.902;2023-01-08T07:59:19;11.40;;;1.95;;
20653;SDS011;21083;50.898;4.902;2023-01-08T08:01:47;9.38;;;1.58;;
20653;SDS011;21083;50.898;4.902;2023-01-08T08:04:14;12.88;;;2.00;;
20653;SDS011;21083;50.898;4.902;2023-01-08T08:06:41;11.40;;;1.77;;
20653;SDS011;21083;50.898;4.902;2023-01-08T08:09:08;8.38;;;1.50;;
20653;SDS011;21083;50.898;4.902;2023-01-08T08:11:35;11.32;;;2.00;;
20653;SDS011;21083;50.898;4.902;2023-01-08T08:14:02;12.07;;;1.77;;
20653;SDS011;21083;50.898;4.902;2023-01-08T08:16:29;12.25;;;1.77;;
20653;SDS011;21083;50.898;4.902;2023-01-08T08:18:58;13.70;;;2.72;;
20653;SDS011;21083;50.898;4.902;2023-01-08T08:21:25;10.18;;;1.75;;
20653;SDS011;21083;50.898;4.902;2023-01-08T08:23:53;12.65;;;1.65;;
20653;SDS011;21083;50.898;4.902;2023-01-08T08:26:20;8.07;;;1.60;;
20653;SDS011;21083;50.898;4.902;2023-01-08T08:28:47;11.57;;;2.15;;
20653;SDS011;21083;50.898;4.902;2023-01-08T08:31:14;8.35;;;1.55;;
20653;SDS011;21083;50.898;4.902;2023-01-08T08:33:41;13.48;;;1.90;;
20653;SDS011;21083;50.898;4.902;2023-01-08T08:36:09;8.38;;;1.90;;
20653;SDS011;21083;50.898;4.902;2023-01-08T08:38:36;11.70;;;1.42;;
20653;SDS011;21083;50.898;4.902;2023-01-08T08:41:04;15.40;;;2.15;;
20653;SDS011;21083;50.898;4.902;2023-01-08T08:43:31;12.57;;;1.58;;
20653;SDS011;21083;50.898;4.902;2023-01-08T08:45:58;14.10;;;2.25;;
20653;SDS011;21083;50.898;4.902;2023-01-08T08:48:25;6.95;;;1.48;;
20653;SDS011;21083;50.898;4.902;2023-01-08T08:50:51;4.63;;;1.38;;
20653;SDS011;21083;50.898;4.902;2023-01-08T08:53:20;9.35;;;1.83;;
20653;SDS011;21083;50.898;4.902;2023-01-08T08:55:46;8.57;;;1.83;;
20653;SDS011;21083;50.898;4.902;2023-01-08T08:58:13;6.50;;;1.25;;
20653;SDS011;21083;50.898;4.902;2023-01-08T09:00:41;8.88;;;1.92;;
20653;SDS011;21083;50.898;4.902;2023-01-08T09:03:09;5.75;;;1.13;;
20653;SDS011;21083;50.898;4.902;2023-01-08T09:05:38;3.45;;;1.08;;
20653;SDS011;21083;50.898;4.902;2023-01-08T09:08:07;6.25;;;0.85;;
20653;SDS011;21083;50.898;4.902;2023-01-08T09:10:36;2.83;;;0.80;;
20653;SDS011;21083;50.898;4.902;2023-01-08T09:13:05;6.35;;;0.77;;
20653;SDS011;21083;50.898;4.902;2023-01-08T09:15:32;10.20;;;2.33;;
20653;SDS011;21083;50.898;4.902;2023-01-08T09:17:59;1.52;;;0.60;;
20653;SDS011;21083;50.898;4.902;2023-01-08T09:20:26;3.70;;;0.57;;
20653;SDS011;21083;50.898;4.902;2023-01-08T09:22:53;1.92;;;0.43;;
20653;SDS011;21083;50.898;4.902;2023-01-08T09:25:20;2.80;;;0.50;;
20653;SDS011;21083;50.898;4.902;2023-01-08T09:27:48;1.58;;;0.40;;
20653;SDS011;21083;50.898;4.902;2023-01-08T09:30:15;1.63;;;0.30;;
20653;SDS011;21083;50.898;4.902;2023-01-08T09:32:42;2.20;;;0.65;;
20653;SDS011;21083;50.898;4.902;2023-01-08T09:35:09;0.95;;;0.43;;
20653;SDS011;21083;50.898;4.902;2023-01-08T09:37:35;1.95;;;0.52;;
20653;SDS011;21083;50.898;4.902;2023-01-08T09:40:02;0.50;;;0.30;;
20653;SDS011;21083;50.898;4.902;2023-01-08T09:42:30;6.03;;;1.58;;
20653;SDS011;21083;50.898;4.902;2023-01-08T09:44:59;9.95;;;4.10;;
20653;SDS011;21083;50.898;4.902;2023-01-08T09:47:28;4.85;;;1.60;;
20653;SDS011;21083;50.898;4.902;2023-01-08T09:49:58;5.78;;;2.42;;
20653;SDS011;21083;50.898;4.902;2023-01-08T09:52:28;5.00;;;1.40;;
20653;SDS011;21083;50.898;4.902;2023-01-08T09:54:56;2.97;;;0.70;;
20653;SDS011;21083;50.898;4.902;2023-01-08T09:57:23;2.13;;;0.90;;
20653;SDS011;21083;50.898;4.902;2023-01-08T09:59:50;3.08;;;0.80;;
20653;SDS011;21083;50.898;4.902;2023-01-08T10:02:19;3.42;;;0.70;;
20653;SDS011;21083;50.898;4.902;2023-01-08T10:04:50;4.38;;;0.93;;
20653;SDS011;21083;50.898;4.902;2023-01-08T10:07:21;3.72;;;0.80;;
20653;SDS011;21083;50.898;4.902;2023-01-08T10:09:49;2.38;;;0.85;;
20653;SDS011;21083;50.898;4.902;2023-01-08T10:12:18;3.42;;;0.70;;
20653;SDS011;21083;50.898;4.902;2023-01-08T10:14:50;2.70;;;0.80;;
20653;SDS011;21083;50.898;4.902;2023-01-08T10:17:23;2.88;;;0.60;;
20653;SDS011;21083;50.898;4.902;2023-01-08T10:19:53;6.75;;;0.77;;
20653;SDS011;21083;50.898;4.902;2023-01-08T10:22:22;2.00;;;0.70;;
20653;SDS011;21083;50.898;4.902;2023-01-08T10:24:50;3.15;;;0.88;;
20653;SDS011;21083;50.898;4.902;2023-01-08T10:27:18;2.20;;;0.80;;
20653;SDS011;21083;50.898;4.902;2023-01-08T10:29:48;6.80;;;1.05;;
20653;SDS011;21083;50.898;4.902;2023-01-08T10:32:17;3.95;;;0.80;;
20653;SDS011;21083;50.898;4.902;2023-01-08T10:34:47;3.78;;;0.70;;
20653;SDS011;21083;50.898;4.902;2023-01-08T10:37:23;2.03;;;0.65;;
20653;SDS011;21083;50.898;4.902;2023-01-08T10:39:53;2.92;;;0.80;;
20653;SDS011;21083;50.898;4.902;2023-01-08T10:42:24;2.08;;;0.80;;
20653;SDS011;21083;50.898;4.902;2023-01-08T10:44:53;5.38;;;1.27;;
20653;SDS011;21083;50.898;4.902;2023-01-08T10:47:24;4.13;;;0.55;;
20653;SDS011;21083;50.898;4.902;2023-01-08T10:49:56;3.83;;;0.63;;
20653;SDS011;21083;50.898;4.902;2023-01-08T10:52:25;2.42;;;0.73;;
20653;SDS011;21083;50.898;4.902;2023-01-08T10:54:55;2.58;;;0.55;;
20653;SDS011;21083;50.898;4.902;2023-01-08T10:57:23;6.25;;;1.27;;
20653;SDS011;21083;50.898;4.902;2023-01-08T10:59:52;1.73;;;0.70;;
20653;SDS011;21083;50.898;4.902;2023-01-08T11:02:28;7.18;;;0.95;;
20653;SDS011;21083;50.898;4.902;2023-01-08T11:04:59;3.67;;;0.80;;
20653;SDS011;21083;50.898;4.902;2023-01-08T11:07:29;2.67;;;0.63;;
20653;SDS011;21083;50.898;4.902;2023-01-08T11:09:59;1.85;;;0.70;;
20653;SDS011;21083;50.898;4.902;2023-01-08T11:12:33;2.17;;;0.77;;
20653;SDS011;21083;50.898;4.902;2023-01-08T11:15:01;3.20;;;0.73;;
20653;SDS011;21083;50.898;4.902;2023-01-08T11:17:29;3.78;;;0.68;;
20653;SDS011;21083;50.898;4.902;2023-01-08T11:20:18;3.35;;;0.73;;
20653;SDS011;21083;50.898;4.902;2023-01-08T11:22:46;6.63;;;1.10;;
20653;SDS011;21083;50.898;4.902;2023-01-08T11:25:17;3.60;;;0.60;;
20653;SDS011;21083;50.898;4.902;2023-01-08T11:27:51;6.47;;;0.90;;
20653;SDS011;21083;50.898;4.902;2023-01-08T11:30:20;7.75;;;1.00;;
20653;SDS011;21083;50.898;4.902;2023-01-08T11:32:50;7.75;;;0.82;;
20653;SDS011;21083;50.898;4.902;2023-01-08T11:35:25;2.38;;;0.57;;
20653;SDS011;21083;50.898;4.902;2023-01-08T11:37:54;4.97;;;0.73;;
20653;SDS011;21083;50.898;4.902;2023-01-08T11:40:26;6.15;;;0.70;;
20653;SDS011;21083;50.898;4.902;2023-01-08T11:43:02;7.82;;;0.82;;
20653;SDS011;21083;50.898;4.902;2023-01-08T11:45:42;6.80;;;1.05;;
20653;SDS011;21083;50.898;4.902;2023-01-08T11:48:30;7.82;;;1.25;;
20653;SDS011;21083;50.898;4.902;2023-01-08T11:51:16;8.52;;;2.17;;
20653;SDS011;21083;50.898;4.902;2023-01-08T11:54:00;6.13;;;1.20;;
20653;SDS011;21083;50.898;4.902;2023-01-08T11:56:37;5.30;;;1.02;;
20653;SDS011;21083;50.898;4.902;2023-01-08T11:59:16;5.55;;;0.88;;
20653;SDS011;21083;50.898;4.902;2023-01-08T12:01:53;8.05;;;1.40;;
20653;SDS011;21083;50.898;4.902;2023-01-08T12:04:36;9.35;;;1.00;;
20653;SDS011;21083;50.898;4.902;2023-01-08T12:07:27;7.18;;;1.10;;
20653;SDS011;21083;50.898;4.902;2023-01-08T12:10:02;9.90;;;1.10;;
20653;SDS011;21083;50.898;4.902;2023-01-08T12:12:40;5.93;;;0.80;;
20653;SDS011;21083;50.898;4.902;2023-01-08T12:15:15;4.78;;;1.00;;
20653;SDS011;21083;50.898;4.902;2023-01-08T12:17:52;5.68;;;1.63;;
20653;SDS011;21083;50.898;4.902;2023-01-08T12:20:34;4.90;;;0.95;;
20653;SDS011;21083;50.898;4.902;2023-01-08T12:23:09;7.45;;;1.25;;
20653;SDS011;21083;50.898;4.902;2023-01-08T12:25:50;10.85;;;1.38;;
20653;SDS011;21083;50.898;4.902;2023-01-08T12:28:34;4.47;;;0.90;;
20653;SDS011;21083;50.898;4.902;2023-01-08T12:31:26;10.88;;;1.50;;
20653;SDS011;21083;50.898;4.902;2023-01-08T12:34:04;4.97;;;0.70;;
20653;SDS011;21083;50.898;4.902;2023-01-08T12:36:36;5.60;;;1.20;;
20653;SDS011;21083;50.898;4.902;2023-01-08T12:39:09;8.90;;;1.20;;
20653;SDS011;21083;50.898;4.902;2023-01-08T12:41:39;12.07;;;1.20;;
20653;SDS011;21083;50.898;4.902;2023-01-08T12:44:09;8.88;;;0.93;;
20653;SDS011;21083;50.898;4.902;2023-01-08T12:46:38;11.55;;;1.20;;
20653;SDS011;21083;50.898;4.902;2023-01-08T12:49:10;6.88;;;1.58;;
20653;SDS011;21083;50.898;4.902;2023-01-08T12:51:43;5.05;;;0.82;;
20653;SDS011;21083;50.898;4.902;2023-01-08T12:54:29;6.63;;;1.17;;
20653;SDS011;21083;50.898;4.902;2023-01-08T12:57:01;5.15;;;1.25;;
20653;SDS011;21083;50.898;4.902;2023-01-08T12:59:36;6.43;;;1.05;;
20653;SDS011;21083;50.898;4.902;2023-01-08T13:02:12;8.70;;;0.93;;
20653;SDS011;21083;50.898;4.902;2023-01-08T13:04:49;4.53;;;0.90;;
20653;SDS011;21083;50.898;4.902;2023-01-08T13:07:17;7.57;;;1.25;;
20653;SDS011;21083;50.898;4.902;2023-01-08T13:09:53;10.23;;;1.23;;
20653;SDS011;21083;50.898;4.902;2023-01-08T13:12:25;4.22;;;0.90;;
20653;SDS011;21083;50.898;4.902;2023-01-08T13:14:58;7.63;;;1.08;;
20653;SDS011;21083;50.898;4.902;2023-01-08T13:17:26;5.00;;;0.88;;
20653;SDS011;21083;50.898;4.902;2023-01-08T13:19:54;7.30;;;0.95;;
20653;SDS011;21083;50.898;4.902;2023-01-08T13:22:26;5.57;;;1.10;;
20653;SDS011;21083;50.898;4.902;2023-01-08T13:28:17;5.68;;;1.00;;
20653;SDS011;21083;50.898;4.902;2023-01-08T13:30:53;4.55;;;0.73;;
20653;SDS011;21083;50.898;4.902;2023-01-08T13:33:24;8.52;;;1.30;;
20653;SDS011;21083;50.898;4.902;2023-01-08T13:36:05;6.93;;;0.80;;
20653;SDS011;21083;50.898;4.902;2023-01-08T13:38:39;4.65;;;0.90;;
20653;SDS011;21083;50.898;4.902;2023-01-08T13:41:11;8.35;;;1.33;;
20653;SDS011;21083;50.898;4.902;2023-01-08T13:43:52;4.72;;;0.98;;
20653;SDS011;21083;50.898;4.902;2023-01-08T13:46:26;8.90;;;1.02;;
20653;SDS011;21083;50.898;4.902;2023-01-08T13:48:56;5.13;;;0.77;;
20653;SDS011;21083;50.898;4.902;2023-01-08T13:51:37;10.93;;;1.48;;
20653;SDS011;21083;50.898;4.902;2023-01-08T13:54:20;7.20;;;1.48;;
20653;SDS011;21083;50.898;4.902;2023-01-08T13:56:52;7.85;;;1.15;;
20653;SDS011;21083;50.898;4.902;2023-01-08T13:59:35;6.15;;;1.10;;
20653;SDS011;21083;50.898;4.902;2023-01-08T14:02:16;6.55;;;0.95;;
20653;SDS011;21083;50.898;4.902;2023-01-08T14:04:55;7.57;;;1.00;;
20653;SDS011;21083;50.898;4.902;2023-01-08T14:07:23;10.23;;;1.50;;
20653;SDS011;21083;50.898;4.902;2023-01-08T14:09:51;6.57;;;1.45;;
20653;SDS011;21083;50.898;4.902;2023-01-08T14:12:19;12.38;;;0.95;;
20653;SDS011;21083;50.898;4.902;2023-01-08T14:14:50;5.32;;;1.10;;
20653;SDS011;21083;50.898;4.902;2023-01-08T14:17:20;4.13;;;0.93;;
20653;SDS011;21083;50.898;4.902;2023-01-08T14:19:50;6.05;;;1.00;;
20653;SDS011;21083;50.898;4.902;2023-01-08T14:22:18;6.90;;;1.60;;
20653;SDS011;21083;50.898;4.902;2023-01-08T14:24:52;6.85;;;1.15;;
20653;SDS011;21083;50.898;4.902;2023-01-08T14:27:21;7.65;;;1.15;;
20653;SDS011;21083;50.898;4.902;2023-01-08T14:29:51;9.60;;;1.27;;
20653;SDS011;21083;50.898;4.902;2023-01-08T14:32:20;8.43;;;2.10;;
20653;SDS011;21083;50.898;4.902;2023-01-08T14:34:49;6.32;;;1.10;;
20653;SDS011;21083;50.898;4.902;2023-01-08T14:37:17;9.82;;;1.38;;
20653;SDS011;21083;50.898;4.902;2023-01-08T14:39:45;7.78;;;1.55;;
20653;SDS011;21083;50.898;4.902;2023-01-08T14:42:16;6.57;;;1.15;;
20653;SDS011;21083;50.898;4.902;2023-01-08T14:45:04;4.63;;;1.00;;
20653;SDS011;21083;50.898;4.902;2023-01-08T14:47:38;7.60;;;1.50;;
20653;SDS011;21083;50.898;4.902;2023-01-08T14:50:14;8.35;;;1.13;;
20653;SDS011;21083;50.898;4.902;2023-01-08T14:52:44;6.72;;;0.88;;
20653;SDS011;21083;50.898;4.902;2023-01-08T14:55:12;6.68;;;1.27;;
20653;SDS011;21083;50.898;4.902;2023-01-08T14:57:43;4.28;;;1.15;;
20653;SDS011;21083;50.898;4.902;2023-01-08T15:00:16;8.45;;;1.13;;
20653;SDS011;21083;50.898;4.902;2023-01-08T15:02:44;4.50;;;0.88;;
20653;SDS011;21083;50.898;4.902;2023-01-08T15:05:15;4.97;;;1.00;;